Weather at White's Airstrip

Public forecast

Using degrees Fahrenheit for public forecast. Weather courtesy of forecast.io.

Closest aviation weather report (METAR) to White's Airstrip

Closest report is Salisbury Ocean City Wicomico Regional Airport, 7.9 nm (14.7 km) SW. Retrieved 2021/06/13 10:54 UTC (16 minutes ago):

KSBY 131054Z 04003KT 7SM OVC004 17/16 A2992 RMK AO2 SLP135 T01720161

Closest aviation forecast (TAF) to White's Airstrip

Closest forecast is Salisbury Ocean City Wicomico Regional Airport, 7.9 nm (14.7 km) SW. Retrieved 2021/06/13 06:58 UTC (4 hours ago):

TAF KSBY 130556Z 1306/1406 VRB02KT P6SM SCT040 FM131300 13005KT P6SM SCT040 FM131800 14007KT P6SM SCT050 FM140200 13004KT P6SM BKN100